Time;durP1;ratioP1;P1;durP2;ratioP2;P2;SDS_P1;SDS_P2;PMS_P1;PMS_P2;Temp;Humidity;BMP_temperature;BMP_pressure;BME280_temperature;BME280_humidity;BME280_pressure;Samples;Min_cycle;Max_cycle;Signal;HPM_P1;HPM_P2
2023/01/24 00:02:03;;;;;;;2.58;2.03;;;;;;;1.92;100.00;101142.28;6060715;23;20102;-88
2023/01/24 00:04:29;;;;;;;2.65;2.03;;;;;;;2.00;100.00;101146.78;6036882;23;20015;-88
2023/01/24 00:06:54;;;;;;;1.00;1.00;;;;;;;1.86;100.00;101136.25;6063433;23;20019;-88
2023/01/24 00:09:20;;;;;;;1.92;1.83;;;;;;;2.02;100.00;101160.13;6063171;23;20035;-88
2023/01/24 00:11:45;;;;;;;1.48;1.45;;;;;;;2.03;100.00;101165.25;6065120;23;20018;-88
2023/01/24 00:14:11;;;;;;;2.47;1.67;;;;;;;2.01;100.00;101153.06;6064022;23;20478;-87
2023/01/24 00:16:37;;;;;;;3.30;2.58;;;;;;;2.05;100.00;101168.44;6038961;23;20030;-88
2023/01/24 00:19:02;;;;;;;1.67;1.58;;;;;;;2.02;100.00;101163.66;6040729;23;20098;-88
2023/01/24 00:21:28;;;;;;;0.45;0.45;;;;;;;1.88;100.00;101147.66;6062427;23;20019;-88
2023/01/24 00:23:54;;;;;;;2.15;1.95;;;;;;;2.08;100.00;101164.19;6039807;23;20015;-88
2023/01/24 00:26:21;;;;;;;3.88;3.60;;;;;;;2.00;100.00;101156.94;6040168;23;20011;-88
2023/01/24 00:28:49;;;;;;;1.95;1.85;;;;;;;1.93;100.00;101152.09;6039458;23;20014;-87
2023/01/24 00:31:14;;;;;;;1.90;1.80;;;;;;;2.06;100.00;101170.03;6039000;23;20436;-87
2023/01/24 00:33:40;;;;;;;3.45;2.90;;;;;;;2.08;100.00;101175.13;6062825;23;20054;-87
2023/01/24 00:36:08;;;;;;;8.27;1.90;;;;;;;2.06;100.00;101170.03;6062863;23;20041;-87
2023/01/24 00:38:33;;;;;;;1.58;1.48;;;;;;;1.94;100.00;101161.09;6038865;23;20472;-87
2023/01/24 00:40:59;;;;;;;1.23;1.17;;;;;;;2.04;100.00;101185.19;6038454;23;20019;-87
2023/01/24 00:43:28;;;;;;;4.70;4.07;;;;;;;1.95;100.00;101162.66;6064667;23;20016;-86
2023/01/24 00:45:54;;;;;;;3.67;3.47;;;;;;;1.98;100.00;101170.19;6063677;23;20007;-86
2023/01/24 00:48:21;;;;;;;5.15;3.58;;;;;;;2.06;100.00;101175.50;6042818;23;20041;-94
2023/01/24 00:50:46;;;;;;;2.05;1.95;;;;;;;2.02;100.00;101185.56;6044206;23;20015;-95
2023/01/24 00:53:12;;;;;;;2.47;2.28;;;;;;;1.98;100.00;101173.72;6021925;23;20011;-96
2023/01/24 00:55:43;;;;;;;2.20;1.40;;;;;;;2.07;100.00;101181.75;6045820;23;20014;-94
2023/01/24 00:58:08;;;;;;;6.55;4.43;;;;;;;2.03;100.00;101186.34;6020200;23;20461;-94
2023/01/24 01:00:36;;;;;;;1.23;1.20;;;;;;;1.97;100.00;101177.59;6043844;23;20019;-95
2023/01/24 01:03:02;;;;;;;3.40;2.90;;;;;;;1.88;100.00;101175.03;6069922;23;20019;-95
2023/01/24 01:05:28;;;;;;;4.05;3.70;;;;;;;1.98;100.00;101183.88;6068601;23;20014;-93
2023/01/24 01:07:53;;;;;;;2.22;1.73;;;;;;;1.77;100.00;101156.75;6066829;23;20030;-95
2023/01/24 01:10:19;;;;;;;8.10;3.88;;;;;;;1.73;100.00;101164.06;6067608;23;20023;-95
2023/01/24 01:12:45;;;;;;;3.03;1.92;;;;;;;1.73;100.00;101161.31;6066757;23;20002;-96
2023/01/24 01:15:11;;;;;;;2.08;1.88;;;;;;;1.88;100.00;101190.66;6041429;23;20012;-94
2023/01/24 01:17:36;;;;;;;4.18;3.13;;;;;;;1.77;100.00;101165.75;6041124;23;20030;-95
2023/01/24 01:20:02;;;;;;;9.82;2.80;;;;;;;1.78;100.00;101169.28;6045830;23;20363;-95
2023/01/24 01:22:28;;;;;;;1.42;1.33;;;;;;;1.98;100.00;101197.56;6066645;23;20003;-95
2023/01/24 01:24:54;;;;;;;0.73;0.73;;;;;;;1.76;100.00;101161.41;6044942;23;20014;-95
2023/01/24 01:27:19;;;;;;;1.25;1.15;;;;;;;1.87;100.00;101180.84;6067610;23;20011;-95
2023/01/24 01:29:45;;;;;;;2.13;2.03;;;;;;;1.79;100.00;101166.19;6065053;23;20090;-95
2023/01/24 01:32:11;;;;;;;2.45;2.25;;;;;;;1.79;100.00;101159.91;6065673;23;20014;-94
2023/01/24 01:34:36;;;;;;;1.65;1.58;;;;;;;1.76;100.00;101155.16;6065413;23;20086;-96
2023/01/24 01:37:02;;;;;;;2.03;1.80;;;;;;;1.77;100.00;101141.13;6067306;23;20019;-96
2023/01/24 01:39:28;;;;;;;3.85;2.92;;;;;;;1.76;100.00;101160.63;6068045;23;20021;-94
2023/01/24 01:41:54;;;;;;;6.47;1.80;;;;;;;1.91;100.00;101168.06;6042980;23;20015;-94
2023/01/24 01:44:38;;;;;;;0.93;0.77;;;;;;;1.89;100.00;101164.88;6017748;23;20011;-94
2023/01/24 01:47:22;;;;;;;2.83;2.63;;;;;;;2.06;100.00;101199.34;6065462;23;20089;-95
2023/01/24 01:49:59;;;;;;;3.35;2.38;;;;;;;1.82;100.00;101179.16;6066432;23;20015;-93
2023/01/24 01:52:26;;;;;;;1.45;1.35;;;;;;;1.78;100.00;101175.53;6040756;23;20071;-96
2023/01/24 01:54:54;;;;;;;1.27;1.17;;;;;;;2.02;100.00;101207.47;6065455;23;20484;-95
2023/01/24 01:57:21;;;;;;;5.50;2.30;;;;;;;1.82;100.00;101192.06;6041984;23;20397;-94
2023/01/24 02:00:09;;;;;;;1.77;1.67;;;;;;;2.04;100.00;101220.78;6042999;23;20014;-95
2023/01/24 02:17:18;;;;;;;2.13;2.03;;;;;;;1.92;100.00;101218.09;6120408;23;20030;-87
2023/01/24 02:20:05;;;;;;;2.35;2.25;;;;;;;1.98;100.00;101225.72;6050900;23;20014;-94
2023/01/24 02:22:56;;;;;;;4.70;3.58;;;;;;;1.99;100.00;101227.28;6102460;23;20022;-94
2023/01/24 02:25:38;;;;;;;2.40;1.35;;;;;;;1.95;100.00;101215.44;6102857;23;20076;-94
2023/01/24 02:28:04;;;;;;;2.92;1.77;;;;;;;2.00;100.00;101219.88;6109089;23;20060;-96
2023/01/24 02:30:30;;;;;;;2.03;1.88;;;;;;;1.94;100.00;101215.81;6106350;23;20005;-95
2023/01/24 02:32:58;;;;;;;6.10;3.78;;;;;;;1.87;100.00;101209.00;6061120;23;20034;-96
2023/01/24 02:35:29;;;;;;;4.85;4.38;;;;;;;1.90;100.00;101198.53;6083690;23;20014;-96
2023/01/24 02:38:00;;;;;;;4.72;3.58;;;;;;;1.79;100.00;101190.81;6058027;23;20026;-96
2023/01/24 02:40:27;;;;;;;1.73;1.63;;;;;;;1.78;100.00;101189.22;6061067;23;20022;-95
2023/01/24 02:42:54;;;;;;;2.00;1.90;;;;;;;1.77;100.00;101198.56;6084276;23;20049;-96
2023/01/24 02:45:26;;;;;;;2.10;1.95;;;;;;;1.75;100.00;101191.84;6061590;23;20014;-96
2023/01/24 02:47:53;;;;;;;2.00;1.90;;;;;;;1.78;100.00;101194.69;6086662;23;20010;-96
2023/01/24 02:50:21;;;;;;;1.40;1.33;;;;;;;1.78;100.00;101191.16;6063870;23;20016;-96
2023/01/24 02:55:32;;;;;;;8.98;3.72;;;;;;;1.95;100.00;101220.13;6112237;23;20021;-96
2023/01/24 02:58:07;;;;;;;1.90;1.80;;;;;;;1.76;100.00;101193.44;6061535;23;20021;-96
2023/01/24 03:00:42;;;;;;;2.22;2.08;;;;;;;1.75;100.00;101191.84;6070766;23;20150;-96
2023/01/24 03:03:10;;;;;;;3.03;2.75;;;;;;;1.88;100.00;101218.00;6085609;23;20041;-96
2023/01/24 03:05:46;;;;;;;2.22;2.13;;;;;;;1.80;100.00;101206.09;6065420;23;20077;-95
2023/01/24 03:08:15;;;;;;;2.90;2.67;;;;;;;1.85;100.00;101214.03;6064617;23;20017;-96
2023/01/24 03:10:41;;;;;;;1.55;1.45;;;;;;;1.74;100.00;101198.47;6079566;23;20010;-95
2023/01/24 03:35:01;;;;;;;0.45;0.45;;;;;;;1.99;100.00;101273.00;6098841;23;20017;-89
2023/01/24 03:40:30;;;;;;;2.42;2.22;;;;;;;1.82;100.00;101255.75;6032218;23;20022;-89
2023/01/24 03:42:55;;;;;;;2.65;2.45;;;;;;;1.96;100.00;101265.50;6072534;23;20020;-89
2023/01/24 03:45:30;;;;;;;1.15;1.13;;;;;;;1.95;100.00;101256.50;6052227;23;20085;-89
2023/01/24 03:47:58;;;;;;;4.15;3.75;;;;;;;1.96;100.00;101262.78;6050088;23;20466;-90
2023/01/24 03:53:14;;;;;;;2.20;1.90;;;;;;;1.96;100.00;101258.09;6095790;23;20022;-90
2023/01/24 03:55:42;;;;;;;2.95;2.75;;;;;;;1.88;100.00;101251.63;6067766;23;20006;-96
2023/01/24 03:58:10;;;;;;;0.65;0.43;;;;;;;1.88;100.00;101245.38;6074161;23;20110;-96
2023/01/24 04:00:37;;;;;;;1.13;1.13;;;;;;;1.83;100.00;101223.72;6098600;23;20030;-96
2023/01/24 04:03:15;;;;;;;1.90;1.80;;;;;;;1.81;100.00;101235.03;6096503;23;20010;-96
2023/01/24 04:05:41;;;;;;;2.55;2.35;;;;;;;1.82;100.00;101239.34;6071295;23;20064;-96
2023/01/24 04:08:10;;;;;;;2.40;2.10;;;;;;;1.87;100.00;101244.56;6068708;23;20026;-96
2023/01/24 04:10:37;;;;;;;1.38;1.27;;;;;;;1.87;100.00;101246.50;6062597;23;20017;-96
2023/01/24 04:13:03;;;;;;;4.18;3.65;;;;;;;1.86;100.00;101248.44;6108011;23;20070;-96
2023/01/24 04:15:30;;;;;;;1.75;1.65;;;;;;;1.88;100.00;101242.63;6051362;23;20337;-96
2023/01/24 04:18:15;;;;;;;1.63;1.52;;;;;;;1.83;100.00;101240.94;6076771;23;20021;-96
2023/01/24 04:20:41;;;;;;;5.35;4.20;;;;;;;1.87;100.00;101249.25;6066968;23;20037;-96
2023/01/24 04:23:09;;;;;;;1.55;1.48;;;;;;;1.84;100.00;101249.94;6093225;23;20010;-95
2023/01/24 04:25:36;;;;;;;3.13;2.35;;;;;;;1.88;100.00;101257.13;6070568;23;20022;-96
2023/01/24 04:28:03;;;;;;;2.15;2.05;;;;;;;1.87;100.00;101250.03;6092284;23;20006;-96
2023/01/24 04:30:31;;;;;;;4.03;3.30;;;;;;;1.64;100.00;101218.91;6092930;23;20078;-96
2023/01/24 04:32:58;;;;;;;7.53;2.80;;;;;;;1.90;100.00;101253.25;6067330;23;20010;-96
2023/01/24 04:35:28;;;;;;;2.75;2.42;;;;;;;1.54;100.00;101216.66;6071154;23;20024;-93
2023/01/24 04:38:01;;;;;;;3.22;1.55;;;;;;;1.55;100.00;101210.06;6093986;23;20009;-96
2023/01/24 04:40:42;;;;;;;1.55;0.95;;;;;;;1.59;100.00;101219.16;6074216;23;20014;-96
2023/01/24 04:43:07;;;;;;;1.00;1.00;;;;;;;1.54;100.00;101210.41;6070472;23;20021;-94
2023/01/24 04:45:34;;;;;;;5.63;3.33;;;;;;;1.65;100.00;101231.47;6090665;23;20144;-96
2023/01/24 04:48:01;;;;;;;3.97;3.63;;;;;;;1.61;100.00;101211.41;6071395;23;20010;-96
2023/01/24 04:50:27;;;;;;;5.25;2.75;;;;;;;1.86;100.00;101251.19;6071647;23;20050;-96
2023/01/24 04:52:53;;;;;;;4.20;3.55;;;;;;;1.53;100.00;101220.56;6069295;23;20013;-96
2023/01/24 04:55:20;;;;;;;2.08;1.88;;;;;;;1.59;100.00;101230.09;6075489;23;20018;-96
2023/01/24 04:57:48;;;;;;;2.05;1.95;;;;;;;1.84;100.00;101264.44;6097265;23;20010;-96
2023/01/24 05:00:14;;;;;;;2.22;1.67;;;;;;;1.52;100.00;101209.97;6073073;23;20018;-96
2023/01/24 05:02:41;;;;;;;2.90;2.70;;;;;;;1.54;100.00;101227.59;6074398;23;19986;-96
2023/01/24 05:05:07;;;;;;;2.92;2.03;;;;;;;1.71;100.00;101243.72;6095429;23;20036;-95
2023/01/24 05:07:33;;;;;;;1.90;1.80;;;;;;;1.60;100.00;101228.97;6068792;23;20062;-96
2023/01/24 05:10:08;;;;;;;0.50;0.50;;;;;;;1.57;100.00;101226.94;6075420;23;20037;-96
2023/01/24 05:12:34;;;;;;;1.08;1.08;;;;;;;1.55;100.00;101240.13;6048341;23;20021;-95
2023/01/24 05:15:09;;;;;;;2.03;1.92;;;;;;;1.51;100.00;101231.03;6077084;23;20014;-95
2023/01/24 05:17:35;;;;;;;0.70;0.70;;;;;;;1.55;100.00;101226.47;6097282;23;20022;-96
2023/01/24 05:20:02;;;;;;;1.75;1.65;;;;;;;1.58;100.00;101235.94;6078465;23;20014;-96
2023/01/24 05:22:29;;;;;;;2.50;1.92;;;;;;;1.51;100.00;101227.50;6078360;23;20010;-96
2023/01/24 05:24:55;;;;;;;2.17;2.05;;;;;;;1.51;100.00;101222.84;6124603;23;20006;-96
2023/01/24 05:27:21;;;;;;;2.55;1.77;;;;;;;1.58;100.00;101244.13;6077167;23;20073;-96
2023/01/24 05:29:54;;;;;;;7.30;3.58;;;;;;;1.66;100.00;101265.84;6097265;23;20029;-94
2023/01/24 05:32:20;;;;;;;1.77;1.42;;;;;;;1.80;100.00;101285.41;6075976;23;20020;-96
2023/01/24 05:34:46;;;;;;;3.60;2.20;;;;;;;1.77;100.00;101291.59;6073509;23;20021;-94
2023/01/24 05:37:12;;;;;;;3.03;2.10;;;;;;;1.52;100.00;101250.97;6072964;23;20021;-96
2023/01/24 05:39:44;;;;;;;2.60;2.35;;;;;;;1.50;100.00;101245.06;6074090;23;20033;-96
2023/01/24 05:42:11;;;;;;;3.30;3.00;;;;;;;1.79;100.00;101292.03;6077050;23;20049;-95
2023/01/24 07:11:55;;;;;;;1.40;1.30;;;;;;;1.84;100.00;101417.63;6092590;23;20472;-88
2023/01/24 07:14:21;;;;;;;2.78;2.58;;;;;;;1.73;100.00;101400.09;6018771;23;20028;-87
2023/01/24 07:16:49;;;;;;;5.20;2.33;;;;;;;1.88;100.00;101418.53;6019283;23;20022;-88
2023/01/24 07:19:21;;;;;;;5.72;1.45;;;;;;;1.91;100.00;101430.72;6020410;23;20101;-88
2023/01/24 07:21:47;;;;;;;2.53;2.05;;;;;;;1.87;100.00;101422.41;6020331;23;20019;-88
2023/01/24 07:24:18;;;;;;;5.32;2.72;;;;;;;1.83;100.00;101416.03;6046926;23;20029;-87
2023/01/24 07:26:44;;;;;;;1.95;1.85;;;;;;;1.80;100.00;101416.72;6020740;23;20018;-88
2023/01/24 07:29:10;;;;;;;1.65;1.55;;;;;;;1.82;100.00;101421.88;6020586;23;20361;-88
2023/01/24 07:31:37;;;;;;;1.50;1.40;;;;;;;1.88;100.00;101432.22;6019985;23;20476;-88
2023/01/24 07:34:02;;;;;;;1.33;1.23;;;;;;;1.91;100.00;101429.94;6020215;23;20017;-88
2023/01/24 07:36:28;;;;;;;2.67;2.22;;;;;;;1.80;100.00;101411.25;6020081;23;20010;-88
2023/01/24 07:38:57;;;;;;;2.35;1.95;;;;;;;1.90;100.00;101436.56;6043554;23;20014;-88
2023/01/24 07:41:23;;;;;;;1.10;0.95;;;;;;;1.93;100.00;101441.34;6020063;23;20444;-88
2023/01/24 07:43:52;;;;;;;1.52;1.42;;;;;;;1.88;100.00;101434.97;6079890;23;20449;-94
2023/01/24 08:02:29;;;;;;;1.75;1.45;;;;;;;1.99;100.00;101475.53;6088527;23;20026;-92
2023/01/24 08:04:54;;;;;;;1.75;1.65;;;;;;;2.03;100.00;101476.44;6040634;23;20018;-91
2023/01/24 08:07:20;;;;;;;14.55;4.35;;;;;;;2.03;100.00;101474.50;6039762;23;20094;-91
2023/01/24 08:09:47;;;;;;;2.40;2.20;;;;;;;2.04;100.00;101472.56;6042215;23;20010;-91
2023/01/24 08:12:12;;;;;;;3.47;3.28;;;;;;;2.00;100.00;101466.97;6040850;23;20019;-92
2023/01/24 08:14:38;;;;;;;0.88;0.88;;;;;;;2.09;100.00;101480.53;6017491;23;20403;-92
2023/01/24 08:17:04;;;;;;;2.35;2.17;;;;;;;2.05;100.00;101482.38;6065260;23;20025;-92
2023/01/24 08:19:31;;;;;;;1.63;1.52;;;;;;;2.17;100.00;101487.81;6016811;23;20009;-91
2023/01/24 08:21:57;;;;;;;4.57;3.67;;;;;;;2.20;100.00;101487.13;6039342;23;20022;-93
2023/01/24 08:24:22;;;;;;;2.05;1.95;;;;;;;2.20;100.00;101487.13;6040861;23;20088;-91
2023/01/24 08:26:48;;;;;;;0.73;0.73;;;;;;;2.31;100.00;101485.50;6043084;23;20391;-91
2023/01/24 08:29:15;;;;;;;2.60;2.40;;;;;;;2.27;100.00;101482.66;6018211;23;20470;-91
2023/01/24 08:31:40;;;;;;;2.42;2.22;;;;;;;2.39;100.00;101501.00;6044387;23;20018;-92
2023/01/24 08:34:06;;;;;;;5.55;4.03;;;;;;;2.25;100.00;101478.69;6022114;23;20022;-93
2023/01/24 08:36:37;;;;;;;2.35;2.20;;;;;;;2.23;100.00;101484.50;6045838;23;20420;-94
2023/01/24 08:39:04;;;;;;;3.50;3.20;;;;;;;2.28;100.00;101483.47;6021455;23;20553;-91
2023/01/24 08:41:30;;;;;;;2.22;2.03;;;;;;;2.28;100.00;101505.38;6020633;23;20003;-91
2023/01/24 08:43:55;;;;;;;0.70;0.70;;;;;;;2.30;100.00;101514.03;6021420;23;20339;-93
2023/01/24 08:46:21;;;;;;;2.85;2.65;;;;;;;2.29;100.00;101501.50;6042864;23;20026;-92
2023/01/24 08:48:46;;;;;;;4.15;2.25;;;;;;;2.39;100.00;101522.13;6044281;23;20501;-92
2023/01/24 08:51:12;;;;;;;1.05;1.05;;;;;;;2.34;100.00;101521.22;6066137;23;20346;-93
2023/01/24 08:53:38;;;;;;;1.52;1.42;;;;;;;2.42;100.00;101522.22;6018726;23;20026;-92
2023/01/24 08:56:04;;;;;;;2.58;2.42;;;;;;;2.36;100.00;101520.88;6019208;23;20361;-92
2023/01/24 08:58:32;;;;;;;1.95;1.85;;;;;;;2.43;100.00;101525.78;6066702;23;20018;-92
2023/01/24 09:00:57;;;;;;;1.75;1.65;;;;;;;2.41;100.00;101525.31;6019577;23;20037;-93
2023/01/24 09:03:23;;;;;;;3.72;3.42;;;;;;;2.42;100.00;101526.91;6071126;23;20435;-92
2023/01/24 09:05:48;;;;;;;2.80;2.60;;;;;;;2.43;100.00;101529.28;6096410;23;20017;-93
2023/01/24 09:08:14;;;;;;;2.08;1.98;;;;;;;2.38;100.00;101509.56;6069771;23;20006;-93
2023/01/24 09:10:39;;;;;;;2.25;2.08;;;;;;;2.40;100.00;101524.50;6121291;23;20442;-93
2023/01/24 09:13:05;;;;;;;2.42;2.22;;;;;;;2.44;100.00;101528.16;6072464;23;20013;-93
2023/01/24 09:15:31;;;;;;;4.57;3.53;;;;;;;2.44;100.00;101517.19;6073833;23;20435;-93
2023/01/24 09:18:00;;;;;;;2.22;1.02;;;;;;;2.49;100.00;101527.13;6122952;23;20342;-94
2023/01/24 09:20:26;;;;;;;4.90;3.33;;;;;;;2.53;100.00;101528.81;6097299;23;20067;-94
2023/01/24 09:22:51;;;;;;;2.30;2.10;;;;;;;2.54;100.00;101535.91;6094187;23;20010;-92
2023/01/24 09:25:17;;;;;;;1.60;1.20;;;;;;;2.56;100.00;101539.06;6097515;23;20009;-94
2023/01/24 09:27:43;;;;;;;7.65;2.90;;;;;;;2.64;100.00;101543.63;6098081;23;20022;-94
2023/01/24 09:30:09;;;;;;;1.75;1.67;;;;;;;2.66;100.00;101548.75;6073558;23;20361;-93
2023/01/24 09:32:35;;;;;;;2.40;2.05;;;;;;;2.55;100.00;101532.00;6072425;23;20017;-93
2023/01/24 09:35:02;;;;;;;3.47;2.45;;;;;;;2.57;100.00;101535.19;6119214;23;20422;-93
2023/01/24 09:37:27;;;;;;;6.80;3.28;;;;;;;2.61;100.00;101541.59;6072758;23;20018;-92
2023/01/24 09:39:55;;;;;;;3.38;2.75;;;;;;;2.59;100.00;101543.84;6122712;23;20006;-92
2023/01/24 09:42:34;;;;;;;2.38;2.25;;;;;;;2.61;100.00;101543.53;6097791;23;20071;-91
2023/01/24 09:45:19;;;;;;;3.25;3.05;;;;;;;2.65;100.00;101537.00;6118228;23;20418;-92
2023/01/24 09:47:52;;;;;;;1.52;1.48;;;;;;;2.69;100.00;101537.91;6095876;23;20033;-92
2023/01/24 09:50:33;;;;;;;5.78;3.40;;;;;;;2.68;100.00;101532.75;6096764;23;20021;-93
2023/01/24 09:52:59;;;;;;;5.45;4.50;;;;;;;2.77;100.00;101538.91;6096627;23;20025;-91
2023/01/24 09:55:41;;;;;;;1.23;1.23;;;;;;;2.68;100.00;101536.31;6095589;23;20107;-91
2023/01/24 09:58:31;;;;;;;3.75;3.13;;;;;;;2.74;100.00;101532.19;6097074;23;20085;-91
2023/01/24 10:01:01;;;;;;;12.00;5.18;;;;;;;2.76;100.00;101521.66;6073757;23;20105;-92
2023/01/24 10:03:27;;;;;;;2.05;1.92;;;;;;;2.71;100.00;101513.69;6096934;23;20022;-91
2023/01/24 10:05:55;;;;;;;2.45;2.25;;;;;;;2.74;100.00;101521.22;6120988;23;20032;-92
2023/01/24 10:08:40;;;;;;;16.42;3.58;;;;;;;2.75;100.00;101511.84;6097365;23;20096;-92
2023/01/24 10:11:43;;;;;;;0.70;0.70;;;;;;;2.74;100.00;101512.22;6120976;23;20017;-92
2023/01/24 10:14:55;;;;;;;0.70;0.70;;;;;;;2.80;100.00;101513.53;6097078;23;20100;-93
2023/01/24 10:17:49;;;;;;;3.08;1.92;;;;;;;2.80;100.00;101511.59;6065680;23;20018;-91
2023/01/24 10:20:36;;;;;;;2.58;2.38;;;;;;;2.75;100.00;101489.91;6072267;23;20105;-91
2023/01/24 10:23:11;;;;;;;4.93;2.97;;;;;;;2.76;100.00;101504.41;6121974;23;20077;-93
2023/01/24 10:25:55;;;;;;;3.38;3.13;;;;;;;2.74;100.00;101490.28;6096480;23;20359;-92
2023/01/24 10:28:32;;;;;;;5.88;2.25;;;;;;;2.80;100.00;101514.34;6072716;23;20018;-93
2023/01/24 10:31:04;;;;;;;1.92;1.83;;;;;;;2.85;100.00;101501.53;6072861;23;20026;-93
2023/01/24 10:33:34;;;;;;;2.30;2.20;;;;;;;2.86;100.00;101505.88;6072114;23;20447;-92
2023/01/24 10:36:03;;;;;;;8.40;3.85;;;;;;;2.86;100.00;101500.41;6095048;23;20334;-93
2023/01/24 10:38:29;;;;;;;1.67;1.55;;;;;;;2.80;100.00;101492.41;6072300;23;20433;-93
2023/01/24 10:41:16;;;;;;;4.93;2.25;;;;;;;2.84;100.00;101495.25;6119885;23;20017;-92
2023/01/24 10:43:44;;;;;;;1.13;1.05;;;;;;;2.83;100.00;101490.13;6073166;23;20024;-93
2023/01/24 10:46:33;;;;;;;2.63;2.28;;;;;;;2.91;100.00;101483.72;6119256;23;20025;-93
2023/01/24 10:49:00;;;;;;;3.47;3.10;;;;;;;2.91;100.00;101494.66;6121963;23;20021;-93
2023/01/24 10:51:26;;;;;;;2.03;1.92;;;;;;;2.87;100.00;101477.34;6095294;23;20136;-93
2023/01/24 10:53:55;;;;;;;4.25;3.50;;;;;;;2.94;100.00;101475.56;6094713;23;20014;-95
2023/01/24 10:56:20;;;;;;;2.78;2.58;;;;;;;2.89;100.00;101473.09;6100352;23;20446;-93
2023/01/24 10:59:03;;;;;;;4.38;2.33;;;;;;;2.94;100.00;101475.56;6125257;23;20010;-92
2023/01/24 11:01:37;;;;;;;1.77;1.17;;;;;;;2.99;100.00;101491.78;6101618;23;20041;-93
2023/01/24 11:04:18;;;;;;;4.00;2.08;;;;;;;2.98;100.00;101497.59;6122857;23;20018;-93
2023/01/24 11:06:47;;;;;;;3.90;2.67;;;;;;;2.91;100.00;101475.47;6124623;23;20018;-92
2023/01/24 11:09:15;;;;;;;4.40;3.60;;;;;;;2.92;100.00;101474.31;6077105;23;20101;-92
2023/01/24 11:11:52;;;;;;;2.45;2.25;;;;;;;2.80;100.00;101466.94;6078898;23;20010;-92
2023/01/24 11:14:23;;;;;;;1.58;1.48;;;;;;;2.87;100.00;101471.84;6107152;23;20120;-92
2023/01/24 11:16:51;;;;;;;1.80;1.55;;;;;;;2.91;100.00;101470.00;6106655;23;20013;-93
2023/01/24 11:19:38;;;;;;;2.20;2.05;;;;;;;2.89;100.00;101469.53;6086972;23;20105;-93
2023/01/24 11:22:21;;;;;;;8.40;1.73;;;;;;;2.91;100.00;101478.22;6123246;23;20010;-92
2023/01/24 11:24:47;;;;;;;3.28;3.08;;;;;;;2.85;100.00;101463.97;6120910;23;20021;-93
2023/01/24 11:27:18;;;;;;;3.15;2.95;;;;;;;2.92;100.00;101446.91;6095870;23;20014;-92
2023/01/24 11:29:44;;;;;;;1.17;1.13;;;;;;;2.92;100.00;101439.47;6095440;23;20026;-93
2023/01/24 11:32:35;;;;;;;3.28;3.03;;;;;;;2.87;100.00;101437.03;6118351;23;20021;-93
2023/01/24 11:35:04;;;;;;;1.95;1.73;;;;;;;2.96;100.00;101453.28;6096178;23;20026;-92
2023/01/24 11:37:54;;;;;;;2.35;2.20;;;;;;;2.98;100.00;101453.75;6119250;23;20104;-93
2023/01/24 11:40:42;;;;;;;1.40;1.30;;;;;;;3.00;100.00;101449.50;6095889;23;20022;-92
2023/01/24 11:43:24;;;;;;;2.17;1.85;;;;;;;2.88;100.00;101435.06;6119855;23;20028;-93
2023/01/24 11:46:15;;;;;;;1.08;1.08;;;;;;;2.90;100.00;101432.78;6120944;23;20022;-93
2023/01/24 11:48:50;;;;;;;7.20;4.53;;;;;;;2.90;100.00;101441.00;6121979;23;20014;-93
2023/01/24 11:51:26;;;;;;;6.57;3.63;;;;;;;2.83;100.00;101430.66;6121291;23;20014;-93
2023/01/24 11:54:05;;;;;;;3.28;2.40;;;;;;;2.85;100.00;101439.31;6122096;23;20073;-92
2023/01/24 11:56:49;;;;;;;1.38;1.35;;;;;;;2.77;100.00;101430.09;6073466;23;20092;-93
2023/01/24 11:59:33;;;;;;;2.35;2.15;;;;;;;2.80;100.00;101440.34;6121720;23;20014;-94
2023/01/24 12:02:17;;;;;;;1.95;1.85;;;;;;;2.81;100.00;101441.16;6121401;23;20014;-92
2023/01/24 12:05:04;;;;;;;11.05;4.38;;;;;;;2.81;100.00;101436.47;6124209;23;20017;-92
2023/01/24 12:08:13;;;;;;;3.35;3.05;;;;;;;2.73;100.00;101423.72;6074956;23;20049;-93
2023/01/24 12:10:52;;;;;;;7.03;2.00;;;;;;;2.83;100.00;101434.16;6098576;23;20022;-92
2023/01/24 12:13:23;;;;;;;3.70;3.45;;;;;;;2.83;100.00;101423.19;6074679;23;20022;-92
2023/01/24 12:16:25;;;;;;;5.97;3.85;;;;;;;2.87;100.00;101422.53;6121705;23;20024;-95
2023/01/24 12:19:29;;;;;;;2.83;2.63;;;;;;;2.97;100.00;101422.78;6088040;23;20097;-92
2023/01/24 12:21:59;;;;;;;2.17;1.75;;;;;;;3.05;100.00;101423.75;6122683;23;20101;-92
2023/01/24 12:24:34;;;;;;;2.75;2.50;;;;;;;3.05;100.00;101419.09;6123911;23;20010;-94
2023/01/24 12:27:03;;;;;;;2.72;2.28;;;;;;;3.21;100.00;101424.56;6099636;23;20018;-94
2023/01/24 12:29:41;;;;;;;2.38;2.17;;;;;;;3.28;100.00;101422.00;6070996;23;20446;-92
2023/01/24 12:32:33;;;;;;;3.88;3.38;;;;;;;3.30;100.00;101419.72;6074358;23;20100;-93
2023/01/24 12:35:21;;;;;;;5.07;4.63;;;;;;;3.36;100.00;101425.75;6124119;23;20049;-94
2023/01/24 12:38:11;;;;;;;4.47;2.25;;;;;;;3.35;100.00;101413.97;6122159;23;20470;-93
2023/01/24 12:41:12;;;;;;;5.13;4.65;;;;;;;3.30;100.00;101416.97;6094017;23;20044;-95
2023/01/24 12:43:53;;;;;;;4.72;3.60;;;;;;;3.46;100.00;101427.94;6099147;23;20407;-89
2023/01/24 12:46:37;;;;;;;3.25;3.05;;;;;;;3.41;100.00;101415.28;6121148;23;20458;-90
2023/01/24 12:49:15;;;;;;;3.13;2.92;;;;;;;3.40;100.00;101421.91;6122959;23;20018;-90
2023/01/24 12:51:54;;;;;;;8.73;4.65;;;;;;;3.34;100.00;101412.38;6121468;23;20021;-90
2023/01/24 12:54:28;;;;;;;2.47;2.38;;;;;;;3.42;100.00;101416.06;6122072;23;20025;-93
2023/01/24 12:56:59;;;;;;;3.67;3.38;;;;;;;3.49;100.00;101417.03;6120378;23;20333;-91
2023/01/24 12:59:27;;;;;;;5.40;3.08;;;;;;;3.39;100.00;101414.84;6119705;23;20069;-92
2023/01/24 13:01:58;;;;;;;3.28;2.88;;;;;;;3.46;100.00;101423.25;6070516;23;20029;-93
2023/01/24 13:04:41;;;;;;;3.15;2.95;;;;;;;3.42;100.00;101419.63;6094812;23;20010;-93
2023/01/24 13:07:25;;;;;;;2.67;2.47;;;;;;;3.43;100.00;101402.00;6096176;23;20013;-91
2023/01/24 13:10:24;;;;;;;1.98;1.85;;;;;;;3.66;100.00;101411.19;6071492;23;20076;-91
2023/01/24 13:12:50;;;;;;;3.05;2.78;;;;;;;3.65;100.00;101390.38;6120624;23;20268;-92
2023/01/24 13:15:27;;;;;;;4.50;1.85;;;;;;;3.89;100.00;101402.25;6071626;23;20009;-92
2023/01/24 13:18:01;;;;;;;1.33;1.25;;;;;;;4.13;100.00;101421.22;6072901;23;20021;-94
2023/01/24 13:20:39;;;;;;;7.57;4.65;;;;;;;4.40;100.00;101424.94;6119870;23;20386;-92
2023/01/24 13:23:26;;;;;;;11.80;3.20;;;;;;;4.68;100.00;101429.06;6120674;23;20048;-92
2023/01/24 13:25:56;;;;;;;3.85;2.67;;;;;;;4.86;100.00;101423.06;6120017;23;20488;-90
2023/01/24 13:28:31;;;;;;;4.28;3.53;;;;;;;4.94;100.00;101435.78;6120448;23;20010;-91
2023/01/24 13:31:08;;;;;;;1.67;1.58;;;;;;;4.96;100.00;101439.00;6120508;23;20013;-91
2023/01/24 13:33:40;;;;;;;7.78;5.35;;;;;;;4.94;100.00;101441.28;6120245;23;20018;-92
2023/01/24 13:36:08;;;;;;;6.20;3.50;;;;;;;4.79;100.00;101421.00;6120199;23;20435;-92
2023/01/24 13:38:41;;;;;;;4.45;3.13;;;;;;;4.69;100.00;101414.13;6120547;23;20071;-92
2023/01/24 13:41:14;;;;;;;1.02;0.98;;;;;;;4.90;100.00;101429.44;6096003;23;20021;-90
2023/01/24 13:43:59;;;;;;;2.47;2.30;;;;;;;4.97;100.00;101427.63;6121387;23;20031;-91
2023/01/24 13:46:45;;;;;;;3.38;2.92;;;;;;;5.13;100.00;101433.03;6117306;23;20025;-91
2023/01/24 13:49:44;;;;;;;4.85;4.05;;;;;;;5.17;100.00;101417.38;6109196;23;20025;-90
2023/01/24 13:52:37;;;;;;;8.75;5.85;;;;;;;5.19;100.00;101431.53;6094958;23;20049;-90
2023/01/24 13:55:24;;;;;;;8.23;3.80;;;;;;;5.18;100.00;101435.44;6115499;23;20022;-91
2023/01/24 13:58:09;;;;;;;3.30;3.03;;;;;;;5.23;100.00;101442.59;6094717;23;20093;-90
2023/01/24 14:00:44;;;;;;;5.72;3.08;;;;;;;5.11;100.00;101432.56;6116928;23;20093;-90
2023/01/24 14:03:19;;;;;;;4.57;2.63;;;;;;;5.13;100.00;101449.53;6117386;23;20327;-90
2023/01/24 14:05:57;;;;;;;2.38;2.17;;;;;;;4.92;100.00;101433.44;6092984;23;20021;-91
2023/01/24 14:08:26;;;;;;;2.88;2.67;;;;;;;5.00;100.00;101445.34;6068917;23;20026;-90
2023/01/24 14:11:18;;;;;;;2.00;1.90;;;;;;;4.97;100.00;101457.09;6089535;23;20014;-90
2023/01/24 14:13:47;;;;;;;3.80;2.38;;;;;;;4.83;100.00;101454.84;6118365;23;20018;-91
2023/01/24 14:16:39;;;;;;;9.38;4.30;;;;;;;4.66;100.00;101453.34;6118101;23;20067;-91